CDT,Max TemperatureF,Mean TemperatureF,Min TemperatureF,Max Dew PointF,MeanDew PointF,Min DewpointF,Max Humidity, Mean Humidity, Min Humidity, Max Sea Level PressureIn, Mean Sea Level PressureIn, Min Sea Level PressureIn, Max VisibilityMiles, Mean VisibilityMiles, Min VisibilityMiles, Max Wind SpeedMPH, Mean Wind SpeedMPH, Max Gust SpeedMPH,PrecipitationIn, CloudCover, Events, WindDirDegrees
2012-10-1,57,56,55,55,52,48,94,85,77,29.84,29.76,29.69,10,9,4,12,7,17,0.21,3,Rain,16
2012-10-2,57,56,55,55,53,50,94,90,82,29.90,29.79,29.70,10,6,1,10,6,,0.12,8,Rain,335
2012-10-3,75,65,55,57,55,52,94,75,44,30.11,30.01,29.90,10,9,4,13,5,21,0.50,4,Rain-Thunderstorm,198
2012-10-4,78,66,55,61,56,54,94,73,42,30.20,30.15,30.11,10,10,7,15,5,18,0.01,0,,205
2012-10-5,62,52,42,57,46,39,93,85,72,30.19,30.15,30.09,10,9,0,15,8,25,1.25,4,Rain-Thunderstorm,357
2012-10-6,51,43,35,39,35,28,93,72,41,30.24,30.21,30.18,10,10,7,8,3,17,0.00,2,,328
2012-10-7,53,46,39,39,34,28,93,68,38,30.26,30.22,30.18,10,10,10,7,3,21,0.00,4,,318
2012-10-8,59,46,33,41,35,28,100,71,33,30.26,30.18,30.11,10,9,2,9,1,,0.00,0,,200
2012-10-9,64,50,37,46,41,36,93,72,42,30.13,30.05,29.95,10,10,10,14,4,21,0.00,1,,200
2012-10-10,57,46,35,48,36,23,93,65,29,30.26,30.18,29.97,10,10,10,15,6,25,0.00,2,,318
2012-10-11,62,48,33,46,36,30,93,66,31,30.29,30.23,30.18,10,10,7,12,2,,0.00,2,Thunderstorm,196
2012-10-12,66,57,48,52,47,45,94,72,49,30.35,30.27,30.20,10,9,2,12,2,18,0.01,2,Rain,62
2012-10-13,78,63,48,68,58,46,94,82,61,30.25,30.09,29.90,10,9,5,14,5,26,0.00,2,,178
2012-10-14,73,65,57,64,60,52,88,78,64,29.93,29.81,29.72,10,10,7,30,14,40,0.04,5,Rain,219
2012-10-15,66,56,46,50,45,39,93,72,37,30.02,29.97,29.92,10,10,7,8,2,,0.00,0,,296
2012-10-16,77,60,44,55,49,43,93,66,41,29.99,29.84,29.71,10,10,10,15,5,20,0.00,0,,178
2012-10-17,75,64,53,57,53,48,94,71,46,29.74,29.60,29.39,10,10,5,24,11,34,0.52,5,Rain-Thunderstorm,186
2012-10-18,64,56,48,52,38,19,94,58,19,29.65,29.62,29.55,10,10,10,23,8,34,0.00,2,,229
2012-10-19,53,50,48,46,43,36,93,74,51,29.79,29.66,29.56,10,10,5,13,7,23,0.05,7,Rain,251
2012-10-20,57,50,42,48,45,41,93,84,72,29.97,29.89,29.79,10,10,5,9,3,,0.00,5,,205
2012-10-21,77,60,44,63,53,43,93,75,50,30.02,29.99,29.95,10,10,7,12,5,,0.00,3,,159
2012-10-22,80,71,62,63,56,46,77,60,38,30.04,30.01,29.97,10,10,10,21,8,28,0.00,2,Thunderstorm,187
2012-10-23,73,68,62,66,57,52,94,72,57,30.03,29.99,29.93,10,10,7,12,6,16,0.10,3,Rain-Thunderstorm,188
2012-10-24,78,68,59,64,60,54,83,75,57,30.05,30.00,29.95,10,10,1,15,8,23,0.00,1,,190
2012-10-25,78,62,46,64,58,43,93,74,57,30.11,29.93,29.86,10,10,10,21,9,25,0.01,2,Rain,193
2012-10-26,46,42,39,43,38,36,93,79,66,30.29,30.22,30.11,10,9,2,17,11,25,0.71,6,Rain,354
2012-10-27,53,44,35,36,35,32,87,72,51,30.25,30.20,30.16,10,10,10,18,10,24,0.00,0,,356
2012-10-28,51,44,37,37,34,30,87,72,50,30.21,30.19,30.16,10,10,10,18,10,25,0.00,2,,355
2012-10-29,53,44,35,36,31,27,87,63,35,30.24,30.17,30.03,10,10,10,18,9,28,0.00,0,,345
2012-10-30,53,46,39,27,21,7,61,42,15,30.03,29.89,29.81,10,10,10,15,8,30,0.00,0,,315
2012-10-31,51,42,32,30,26,21,87,58,30,29.95,29.91,29.86,10,10,10,12,3,20,0.00,0,,296